Main page
METAR-TAF:

METAR-TAF

Airports :

Northeast Iowa Regional Airport

Charles City, Iowa, United States

latitude: 43-04N, longitude: 092-37W, elevation: 1125 ft

Current weather observation

The report was made 11 minutes ago, at 11:35 UTC
Wind 22 mph from the East with gusts up to 30 mph
Temperature 50°F
Humidity 93%
Pressure 29.82 in. Hg
Visibility: 8 miles
Few clouds at a height of 3000 ft
Scattered clouds at a height of 5000 ft
Broken clouds at a height of 8000 ft

METAR: KCCY 161135Z AUTO 09019G26KT 8SM FEW030 SCT050 BKN080 10/09 A2982 RMK AO2

Time: 06:46 (11:46 UTC)


TAF: missing

Weather observations and forecasts of more than 4000 airports (METAR and TAF reports).

The available stations are represented by yellow and red dots on the map.

Hover mouse over dot to see the name of the station.

Then click to see weather observations and forecasts.

To change the map : click on the green buttons with a black cross to zoom in, on the green button with a dash to zoom out, or on the green arrows for adjacent maps.


METAR-TAF: